sensor_id;sensor_type;location;lat;lon;timestamp;P1;durP1;ratioP1;P2;durP2;ratioP2
64197;SDS011;50512;53.666;9.700;2023-11-19T00:02:20;11.80;;;5.13;;
64197;SDS011;50512;53.666;9.700;2023-11-19T00:04:47;7.63;;;4.68;;
64197;SDS011;50512;53.666;9.700;2023-11-19T00:07:14;10.73;;;4.95;;
64197;SDS011;50512;53.666;9.700;2023-11-19T00:09:42;13.48;;;4.13;;
64197;SDS011;50512;53.666;9.700;2023-11-19T00:12:08;9.90;;;4.80;;
64197;SDS011;50512;53.666;9.700;2023-11-19T00:14:35;14.38;;;6.40;;
64197;SDS011;50512;53.666;9.700;2023-11-19T00:17:02;8.82;;;4.65;;
64197;SDS011;50512;53.666;9.700;2023-11-19T00:19:29;9.02;;;4.70;;
64197;SDS011;50512;53.666;9.700;2023-11-19T00:21:55;9.00;;;4.28;;
64197;SDS011;50512;53.666;9.700;2023-11-19T00:24:22;6.53;;;3.33;;
64197;SDS011;50512;53.666;9.700;2023-11-19T00:26:49;8.90;;;4.43;;
64197;SDS011;50512;53.666;9.700;2023-11-19T00:29:16;6.10;;;3.05;;
64197;SDS011;50512;53.666;9.700;2023-11-19T00:31:45;9.82;;;4.63;;
64197;SDS011;50512;53.666;9.700;2023-11-19T00:34:11;8.23;;;4.18;;
64197;SDS011;50512;53.666;9.700;2023-11-19T00:36:38;10.50;;;5.07;;
64197;SDS011;50512;53.666;9.700;2023-11-19T00:39:05;8.02;;;3.42;;
64197;SDS011;50512;53.666;9.700;2023-11-19T00:41:31;6.70;;;3.28;;
64197;SDS011;50512;53.666;9.700;2023-11-19T00:43:59;7.28;;;3.33;;
64197;SDS011;50512;53.666;9.700;2023-11-19T00:46:25;6.47;;;3.90;;
64197;SDS011;50512;53.666;9.700;2023-11-19T00:48:52;6.30;;;3.47;;
64197;SDS011;50512;53.666;9.700;2023-11-19T00:51:19;7.80;;;3.83;;
64197;SDS011;50512;53.666;9.700;2023-11-19T00:53:46;7.13;;;3.35;;
64197;SDS011;50512;53.666;9.700;2023-11-19T00:56:12;5.45;;;2.85;;
64197;SDS011;50512;53.666;9.700;2023-11-19T00:58:39;7.75;;;3.55;;
64197;SDS011;50512;53.666;9.700;2023-11-19T01:01:07;5.88;;;2.97;;
64197;SDS011;50512;53.666;9.700;2023-11-19T01:03:33;4.53;;;2.50;;
64197;SDS011;50512;53.666;9.700;2023-11-19T01:06:00;7.75;;;2.65;;
64197;SDS011;50512;53.666;9.700;2023-11-19T01:08:27;6.00;;;3.08;;
64197;SDS011;50512;53.666;9.700;2023-11-19T01:10:54;3.72;;;2.33;;
64197;SDS011;50512;53.666;9.700;2023-11-19T01:13:20;7.25;;;2.80;;
64197;SDS011;50512;53.666;9.700;2023-11-19T01:15:47;5.70;;;2.63;;
64197;SDS011;50512;53.666;9.700;2023-11-19T01:18:15;5.28;;;2.55;;
64197;SDS011;50512;53.666;9.700;2023-11-19T01:20:41;7.15;;;3.25;;
64197;SDS011;50512;53.666;9.700;2023-11-19T01:23:08;3.58;;;1.80;;
64197;SDS011;50512;53.666;9.700;2023-11-19T01:25:34;7.55;;;2.40;;
64197;SDS011;50512;53.666;9.700;2023-11-19T01:28:03;5.57;;;2.58;;
64197;SDS011;50512;53.666;9.700;2023-11-19T01:30:30;4.07;;;2.10;;
64197;SDS011;50512;53.666;9.700;2023-11-19T01:32:56;3.58;;;2.05;;
64197;SDS011;50512;53.666;9.700;2023-11-19T01:35:24;3.90;;;1.92;;
64197;SDS011;50512;53.666;9.700;2023-11-19T01:37:50;4.20;;;2.28;;
64197;SDS011;50512;53.666;9.700;2023-11-19T01:40:19;3.83;;;2.40;;
64197;SDS011;50512;53.666;9.700;2023-11-19T01:42:46;5.05;;;2.53;;
64197;SDS011;50512;53.666;9.700;2023-11-19T01:45:19;3.40;;;1.83;;
64197;SDS011;50512;53.666;9.700;2023-11-19T01:47:52;4.40;;;1.80;;
64197;SDS011;50512;53.666;9.700;2023-11-19T01:50:19;4.65;;;2.20;;
64197;SDS011;50512;53.666;9.700;2023-11-19T01:52:47;4.20;;;2.15;;
64197;SDS011;50512;53.666;9.700;2023-11-19T01:55:14;3.30;;;1.55;;
64197;SDS011;50512;53.666;9.700;2023-11-19T01:57:41;4.10;;;2.00;;
64197;SDS011;50512;53.666;9.700;2023-11-19T02:00:08;3.55;;;1.60;;
64197;SDS011;50512;53.666;9.700;2023-11-19T02:02:36;3.70;;;1.90;;
64197;SDS011;50512;53.666;9.700;2023-11-19T02:05:04;2.95;;;1.45;;
64197;SDS011;50512;53.666;9.700;2023-11-19T02:07:31;3.58;;;1.48;;
64197;SDS011;50512;53.666;9.700;2023-11-19T02:09:59;2.17;;;0.98;;
64197;SDS011;50512;53.666;9.700;2023-11-19T02:12:27;2.40;;;1.30;;
64197;SDS011;50512;53.666;9.700;2023-11-19T02:14:54;3.47;;;1.55;;
64197;SDS011;50512;53.666;9.700;2023-11-19T02:17:26;2.50;;;1.17;;
64197;SDS011;50512;53.666;9.700;2023-11-19T02:19:53;2.70;;;1.52;;
64197;SDS011;50512;53.666;9.700;2023-11-19T02:22:20;3.58;;;1.50;;
64197;SDS011;50512;53.666;9.700;2023-11-19T02:24:46;4.82;;;1.65;;
64197;SDS011;50512;53.666;9.700;2023-11-19T02:27:20;2.17;;;1.40;;
64197;SDS011;50512;53.666;9.700;2023-11-19T02:29:56;2.60;;;1.50;;
64197;SDS011;50512;53.666;9.700;2023-11-19T02:32:23;3.15;;;1.40;;
64197;SDS011;50512;53.666;9.700;2023-11-19T02:34:50;1.88;;;1.25;;
64197;SDS011;50512;53.666;9.700;2023-11-19T02:37:18;2.10;;;1.30;;
64197;SDS011;50512;53.666;9.700;2023-11-19T02:39:45;2.17;;;1.20;;
64197;SDS011;50512;53.666;9.700;2023-11-19T02:42:11;1.80;;;1.10;;
64197;SDS011;50512;53.666;9.700;2023-11-19T02:44:39;0.80;;;0.70;;
64197;SDS011;50512;53.666;9.700;2023-11-19T02:47:11;1.98;;;1.30;;
64197;SDS011;50512;53.666;9.700;2023-11-19T02:49:37;3.00;;;1.42;;
64197;SDS011;50512;53.666;9.700;2023-11-19T02:52:04;3.45;;;1.80;;
64197;SDS011;50512;53.666;9.700;2023-11-19T02:54:31;3.05;;;1.55;;
64197;SDS011;50512;53.666;9.700;2023-11-19T02:57:00;3.42;;;2.00;;
64197;SDS011;50512;53.666;9.700;2023-11-19T02:59:28;6.20;;;2.95;;
64197;SDS011;50512;53.666;9.700;2023-11-19T03:02:04;4.55;;;2.40;;
64197;SDS011;50512;53.666;9.700;2023-11-19T03:04:32;5.30;;;2.75;;
64197;SDS011;50512;53.666;9.700;2023-11-19T03:06:59;6.13;;;3.00;;
64197;SDS011;50512;53.666;9.700;2023-11-19T03:09:26;3.92;;;1.92;;
64197;SDS011;50512;53.666;9.700;2023-11-19T03:11:53;6.78;;;2.95;;
64197;SDS011;50512;53.666;9.700;2023-11-19T03:14:19;9.40;;;3.08;;
64197;SDS011;50512;53.666;9.700;2023-11-19T03:16:47;8.18;;;2.58;;
64197;SDS011;50512;53.666;9.700;2023-11-19T03:19:14;6.13;;;2.90;;
64197;SDS011;50512;53.666;9.700;2023-11-19T03:21:42;8.77;;;3.80;;
64197;SDS011;50512;53.666;9.700;2023-11-19T03:24:09;7.40;;;3.67;;
64197;SDS011;50512;53.666;9.700;2023-11-19T03:26:36;8.35;;;4.40;;
64197;SDS011;50512;53.666;9.700;2023-11-19T03:29:03;9.88;;;5.20;;
64197;SDS011;50512;53.666;9.700;2023-11-19T03:31:29;11.55;;;5.38;;
64197;SDS011;50512;53.666;9.700;2023-11-19T03:33:56;11.65;;;5.35;;
64197;SDS011;50512;53.666;9.700;2023-11-19T03:36:22;14.38;;;6.65;;
64197;SDS011;50512;53.666;9.700;2023-11-19T03:38:50;11.45;;;5.35;;
64197;SDS011;50512;53.666;9.700;2023-11-19T03:41:17;9.95;;;5.38;;
64197;SDS011;50512;53.666;9.700;2023-11-19T03:43:44;12.93;;;6.18;;
64197;SDS011;50512;53.666;9.700;2023-11-19T03:46:17;14.90;;;7.40;;
64197;SDS011;50512;53.666;9.700;2023-11-19T03:48:44;12.20;;;6.40;;
64197;SDS011;50512;53.666;9.700;2023-11-19T03:51:11;13.40;;;5.88;;
64197;SDS011;50512;53.666;9.700;2023-11-19T03:53:40;16.60;;;7.10;;
64197;SDS011;50512;53.666;9.700;2023-11-19T03:56:08;16.50;;;6.40;;
64197;SDS011;50512;53.666;9.700;2023-11-19T03:58:36;13.00;;;5.53;;
64197;SDS011;50512;53.666;9.700;2023-11-19T04:01:03;14.88;;;6.88;;
64197;SDS011;50512;53.666;9.700;2023-11-19T04:03:30;23.40;;;8.43;;
64197;SDS011;50512;53.666;9.700;2023-11-19T04:05:56;16.38;;;7.32;;
64197;SDS011;50512;53.666;9.700;2023-11-19T04:08:24;18.27;;;8.43;;
64197;SDS011;50512;53.666;9.700;2023-11-19T04:10:50;14.88;;;6.63;;
64197;SDS011;50512;53.666;9.700;2023-11-19T04:13:18;16.33;;;7.00;;
64197;SDS011;50512;53.666;9.700;2023-11-19T04:15:45;23.10;;;9.57;;
64197;SDS011;50512;53.666;9.700;2023-11-19T04:18:12;16.42;;;6.20;;
64197;SDS011;50512;53.666;9.700;2023-11-19T04:20:38;24.67;;;9.60;;
64197;SDS011;50512;53.666;9.700;2023-11-19T04:23:07;21.23;;;8.45;;
64197;SDS011;50512;53.666;9.700;2023-11-19T04:25:34;26.40;;;10.10;;
64197;SDS011;50512;53.666;9.700;2023-11-19T04:28:01;30.38;;;10.10;;
64197;SDS011;50512;53.666;9.700;2023-11-19T04:30:29;33.88;;;11.88;;
64197;SDS011;50512;53.666;9.700;2023-11-19T04:32:56;28.30;;;10.65;;
64197;SDS011;50512;53.666;9.700;2023-11-19T04:35:23;29.95;;;10.65;;
64197;SDS011;50512;53.666;9.700;2023-11-19T04:37:51;30.02;;;11.10;;
64197;SDS011;50512;53.666;9.700;2023-11-19T04:40:17;32.78;;;11.25;;
64197;SDS011;50512;53.666;9.700;2023-11-19T04:42:44;43.67;;;12.95;;
64197;SDS011;50512;53.666;9.700;2023-11-19T04:45:10;37.33;;;13.05;;
64197;SDS011;50512;53.666;9.700;2023-11-19T04:47:38;45.72;;;11.98;;
64197;SDS011;50512;53.666;9.700;2023-11-19T04:50:06;45.58;;;15.23;;
64197;SDS011;50512;53.666;9.700;2023-11-19T04:52:36;59.28;;;17.48;;
64197;SDS011;50512;53.666;9.700;2023-11-19T04:55:03;47.30;;;15.68;;
64197;SDS011;50512;53.666;9.700;2023-11-19T04:57:30;43.92;;;15.02;;
64197;SDS011;50512;53.666;9.700;2023-11-19T04:59:57;45.10;;;16.98;;
64197;SDS011;50512;53.666;9.700;2023-11-19T05:02:24;46.83;;;15.38;;
64197;SDS011;50512;53.666;9.700;2023-11-19T05:04:52;61.13;;;17.90;;
64197;SDS011;50512;53.666;9.700;2023-11-19T05:07:18;63.80;;;17.85;;
64197;SDS011;50512;53.666;9.700;2023-11-19T05:09:44;60.63;;;17.83;;
64197;SDS011;50512;53.666;9.700;2023-11-19T05:12:11;58.08;;;18.83;;
64197;SDS011;50512;53.666;9.700;2023-11-19T05:14:37;64.18;;;19.88;;
64197;SDS011;50512;53.666;9.700;2023-11-19T05:17:04;63.42;;;20.75;;
64197;SDS011;50512;53.666;9.700;2023-11-19T05:19:30;69.75;;;19.60;;
64197;SDS011;50512;53.666;9.700;2023-11-19T05:21:58;59.97;;;17.98;;
64197;SDS011;50512;53.666;9.700;2023-11-19T05:24:24;50.40;;;14.57;;
64197;SDS011;50512;53.666;9.700;2023-11-19T05:26:51;64.40;;;18.00;;
64197;SDS011;50512;53.666;9.700;2023-11-19T05:29:18;57.40;;;17.90;;
64197;SDS011;50512;53.666;9.700;2023-11-19T05:31:44;59.58;;;18.58;;
64197;SDS011;50512;53.666;9.700;2023-11-19T05:34:12;59.83;;;17.15;;
64197;SDS011;50512;53.666;9.700;2023-11-19T05:36:40;34.97;;;12.60;;
64197;SDS011;50512;53.666;9.700;2023-11-19T05:39:07;68.32;;;19.65;;
64197;SDS011;50512;53.666;9.700;2023-11-19T05:41:36;58.88;;;18.92;;
64197;SDS011;50512;53.666;9.700;2023-11-19T05:44:02;60.15;;;17.60;;
64197;SDS011;50512;53.666;9.700;2023-11-19T05:46:29;62.28;;;18.08;;
64197;SDS011;50512;53.666;9.700;2023-11-19T05:48:55;63.42;;;18.27;;
64197;SDS011;50512;53.666;9.700;2023-11-19T05:51:22;64.47;;;17.73;;
64197;SDS011;50512;53.666;9.700;2023-11-19T05:53:49;63.85;;;15.30;;
64197;SDS011;50512;53.666;9.700;2023-11-19T05:56:17;50.90;;;17.33;;
64197;SDS011;50512;53.666;9.700;2023-11-19T05:58:46;54.33;;;16.67;;
64197;SDS011;50512;53.666;9.700;2023-11-19T06:01:13;65.35;;;16.30;;
64197;SDS011;50512;53.666;9.700;2023-11-19T06:03:39;52.50;;;15.73;;
64197;SDS011;50512;53.666;9.700;2023-11-19T06:06:08;48.10;;;16.90;;
64197;SDS011;50512;53.666;9.700;2023-11-19T06:08:35;51.83;;;15.18;;
64197;SDS011;50512;53.666;9.700;2023-11-19T06:11:02;38.95;;;10.40;;
64197;SDS011;50512;53.666;9.700;2023-11-19T06:13:30;45.67;;;12.27;;
64197;SDS011;50512;53.666;9.700;2023-11-19T06:15:57;51.10;;;13.55;;
64197;SDS011;50512;53.666;9.700;2023-11-19T06:18:23;46.95;;;14.20;;
64197;SDS011;50512;53.666;9.700;2023-11-19T06:20:50;34.85;;;10.05;;
64197;SDS011;50512;53.666;9.700;2023-11-19T06:23:16;39.67;;;12.27;;
64197;SDS011;50512;53.666;9.700;2023-11-19T06:25:43;39.72;;;10.82;;
64197;SDS011;50512;53.666;9.700;2023-11-19T06:28:09;35.30;;;9.15;;
64197;SDS011;50512;53.666;9.700;2023-11-19T06:30:37;35.85;;;10.15;;
64197;SDS011;50512;53.666;9.700;2023-11-19T06:33:04;37.10;;;9.95;;
64197;SDS011;50512;53.666;9.700;2023-11-19T06:35:30;36.65;;;9.40;;
64197;SDS011;50512;53.666;9.700;2023-11-19T06:38:01;38.35;;;9.68;;
64197;SDS011;50512;53.666;9.700;2023-11-19T06:40:29;28.48;;;7.72;;
64197;SDS011;50512;53.666;9.700;2023-11-19T06:42:55;34.00;;;9.18;;
64197;SDS011;50512;53.666;9.700;2023-11-19T06:45:22;31.67;;;7.93;;
64197;SDS011;50512;53.666;9.700;2023-11-19T06:47:50;29.20;;;8.50;;
64197;SDS011;50512;53.666;9.700;2023-11-19T06:50:16;28.67;;;8.00;;
64197;SDS011;50512;53.666;9.700;2023-11-19T06:52:44;28.08;;;6.07;;
64197;SDS011;50512;53.666;9.700;2023-11-19T06:55:11;33.58;;;7.75;;
64197;SDS011;50512;53.666;9.700;2023-11-19T06:57:37;29.65;;;6.35;;
64197;SDS011;50512;53.666;9.700;2023-11-19T07:00:05;30.73;;;6.35;;
64197;SDS011;50512;53.666;9.700;2023-11-19T07:02:33;24.00;;;5.85;;
64197;SDS011;50512;53.666;9.700;2023-11-19T07:05:00;26.40;;;4.80;;
64197;SDS011;50512;53.666;9.700;2023-11-19T07:07:29;27.35;;;6.57;;
64197;SDS011;50512;53.666;9.700;2023-11-19T07:09:56;20.80;;;5.53;;
64197;SDS011;50512;53.666;9.700;2023-11-19T07:12:22;26.58;;;6.40;;
64197;SDS011;50512;53.666;9.700;2023-11-19T07:14:51;34.05;;;6.65;;
64197;SDS011;50512;53.666;9.700;2023-11-19T07:17:18;28.02;;;5.85;;
64197;SDS011;50512;53.666;9.700;2023-11-19T07:19:45;25.10;;;4.93;;
64197;SDS011;50512;53.666;9.700;2023-11-19T07:22:13;29.40;;;5.80;;
64197;SDS011;50512;53.666;9.700;2023-11-19T07:24:40;19.17;;;4.53;;
64197;SDS011;50512;53.666;9.700;2023-11-19T07:27:06;30.52;;;7.05;;
64197;SDS011;50512;53.666;9.700;2023-11-19T07:29:33;20.58;;;5.18;;
64197;SDS011;50512;53.666;9.700;2023-11-19T07:32:00;35.72;;;5.75;;
64197;SDS011;50512;53.666;9.700;2023-11-19T07:34:27;34.85;;;7.15;;
64197;SDS011;50512;53.666;9.700;2023-11-19T07:36:54;32.33;;;5.88;;
64197;SDS011;50512;53.666;9.700;2023-11-19T07:39:23;29.02;;;7.15;;
64197;SDS011;50512;53.666;9.700;2023-11-19T07:41:50;31.40;;;7.20;;
64197;SDS011;50512;53.666;9.700;2023-11-19T07:44:16;28.33;;;5.45;;
64197;SDS011;50512;53.666;9.700;2023-11-19T07:46:43;25.13;;;7.70;;
64197;SDS011;50512;53.666;9.700;2023-11-19T07:49:09;29.58;;;5.95;;
64197;SDS011;50512;53.666;9.700;2023-11-19T07:51:36;38.47;;;5.68;;
64197;SDS011;50512;53.666;9.700;2023-11-19T07:54:03;29.60;;;4.85;;
64197;SDS011;50512;53.666;9.700;2023-11-19T07:56:31;29.42;;;5.40;;
64197;SDS011;50512;53.666;9.700;2023-11-19T07:58:59;23.42;;;6.75;;
64197;SDS011;50512;53.666;9.700;2023-11-19T08:01:25;35.40;;;5.13;;
64197;SDS011;50512;53.666;9.700;2023-11-19T08:03:52;36.05;;;7.78;;
64197;SDS011;50512;53.666;9.700;2023-11-19T08:06:18;26.35;;;5.38;;
64197;SDS011;50512;53.666;9.700;2023-11-19T08:08:45;37.35;;;8.00;;
64197;SDS011;50512;53.666;9.700;2023-11-19T08:11:13;22.25;;;4.80;;
64197;SDS011;50512;53.666;9.700;2023-11-19T08:13:41;31.38;;;5.50;;
64197;SDS011;50512;53.666;9.700;2023-11-19T08:16:08;22.60;;;6.78;;
64197;SDS011;50512;53.666;9.700;2023-11-19T08:18:34;39.78;;;5.88;;
64197;SDS011;50512;53.666;9.700;2023-11-19T08:21:01;32.60;;;7.07;;
64197;SDS011;50512;53.666;9.700;2023-11-19T08:23:29;28.83;;;5.90;;
64197;SDS011;50512;53.666;9.700;2023-11-19T08:25:56;33.70;;;6.30;;
64197;SDS011;50512;53.666;9.700;2023-11-19T08:28:22;35.58;;;7.43;;
64197;SDS011;50512;53.666;9.700;2023-11-19T08:30:50;25.58;;;3.95;;
64197;SDS011;50512;53.666;9.700;2023-11-19T08:33:17;22.17;;;4.57;;
64197;SDS011;50512;53.666;9.700;2023-11-19T08:35:43;30.08;;;7.80;;
64197;SDS011;50512;53.666;9.700;2023-11-19T08:38:10;30.48;;;6.68;;
64197;SDS011;50512;53.666;9.700;2023-11-19T08:40:36;42.22;;;6.72;;
64197;SDS011;50512;53.666;9.700;2023-11-19T08:43:03;22.23;;;5.97;;
64197;SDS011;50512;53.666;9.700;2023-11-19T08:45:31;33.92;;;5.63;;
64197;SDS011;50512;53.666;9.700;2023-11-19T08:47:59;24.10;;;4.88;;
64197;SDS011;50512;53.666;9.700;2023-11-19T08:50:25;34.95;;;5.93;;
64197;SDS011;50512;53.666;9.700;2023-11-19T08:52:52;27.88;;;4.63;;
64197;SDS011;50512;53.666;9.700;2023-11-19T08:55:18;32.17;;;4.50;;
64197;SDS011;50512;53.666;9.700;2023-11-19T08:57:45;32.90;;;5.47;;
64197;SDS011;50512;53.666;9.700;2023-11-19T09:00:11;26.60;;;4.60;;
64197;SDS011;50512;53.666;9.700;2023-11-19T09:02:39;31.05;;;4.80;;
64197;SDS011;50512;53.666;9.700;2023-11-19T09:05:07;32.78;;;5.90;;
64197;SDS011;50512;53.666;9.700;2023-11-19T09:07:34;39.17;;;7.13;;
64197;SDS011;50512;53.666;9.700;2023-11-19T09:10:01;29.50;;;4.72;;
64197;SDS011;50512;53.666;9.700;2023-11-19T09:12:27;32.03;;;5.22;;
64197;SDS011;50512;53.666;9.700;2023-11-19T09:14:53;24.02;;;4.68;;
64197;SDS011;50512;53.666;9.700;2023-11-19T09:17:20;30.88;;;5.53;;
64197;SDS011;50512;53.666;9.700;2023-11-19T09:19:46;27.40;;;5.00;;
64197;SDS011;50512;53.666;9.700;2023-11-19T09:22:14;32.92;;;5.82;;
64197;SDS011;50512;53.666;9.700;2023-11-19T09:24:41;36.33;;;5.38;;
64197;SDS011;50512;53.666;9.700;2023-11-19T09:27:09;42.28;;;6.60;;
64197;SDS011;50512;53.666;9.700;2023-11-19T09:29:35;33.90;;;6.47;;
64197;SDS011;50512;53.666;9.700;2023-11-19T09:32:02;29.13;;;4.35;;
64197;SDS011;50512;53.666;9.700;2023-11-19T09:34:28;28.48;;;5.22;;
64197;SDS011;50512;53.666;9.700;2023-11-19T09:36:55;35.50;;;6.53;;
64197;SDS011;50512;53.666;9.700;2023-11-19T09:39:23;35.63;;;5.25;;
64197;SDS011;50512;53.666;9.700;2023-11-19T09:41:50;26.23;;;5.68;;
64197;SDS011;50512;53.666;9.700;2023-11-19T09:44:17;38.47;;;5.38;;
64197;SDS011;50512;53.666;9.700;2023-11-19T09:46:44;24.33;;;5.03;;
64197;SDS011;50512;53.666;9.700;2023-11-19T09:49:11;25.95;;;6.88;;
64197;SDS011;50512;53.666;9.700;2023-11-19T09:51:38;35.95;;;6.10;;
64197;SDS011;50512;53.666;9.700;2023-11-19T09:54:04;33.33;;;4.93;;
64197;SDS011;50512;53.666;9.700;2023-11-19T09:56:33;36.28;;;5.05;;
64197;SDS011;50512;53.666;9.700;2023-11-19T09:59:03;33.58;;;5.05;;
64197;SDS011;50512;53.666;9.700;2023-11-19T10:01:29;32.08;;;7.43;;
64197;SDS011;50512;53.666;9.700;2023-11-19T10:03:57;29.65;;;4.65;;
64197;SDS011;50512;53.666;9.700;2023-11-19T10:06:23;26.13;;;4.60;;
64197;SDS011;50512;53.666;9.700;2023-11-19T10:08:52;35.05;;;4.57;;
64197;SDS011;50512;53.666;9.700;2023-11-19T10:11:18;33.83;;;5.53;;
64197;SDS011;50512;53.666;9.700;2023-11-19T10:13:46;21.48;;;4.60;;
64197;SDS011;50512;53.666;9.700;2023-11-19T10:16:13;33.45;;;4.70;;
64197;SDS011;50512;53.666;9.700;2023-11-19T10:18:42;39.35;;;6.22;;
64197;SDS011;50512;53.666;9.700;2023-11-19T10:21:11;42.33;;;6.38;;
64197;SDS011;50512;53.666;9.700;2023-11-19T10:23:48;29.67;;;4.97;;
64197;SDS011;50512;53.666;9.700;2023-11-19T10:26:16;27.27;;;4.97;;
64197;SDS011;50512;53.666;9.700;2023-11-19T10:28:43;38.22;;;5.50;;
64197;SDS011;50512;53.666;9.700;2023-11-19T10:31:12;34.80;;;5.47;;
64197;SDS011;50512;53.666;9.700;2023-11-19T10:33:39;30.45;;;6.20;;
64197;SDS011;50512;53.666;9.700;2023-11-19T10:36:06;27.02;;;4.93;;
64197;SDS011;50512;53.666;9.700;2023-11-19T10:38:33;30.52;;;4.88;;
64197;SDS011;50512;53.666;9.700;2023-11-19T10:40:59;27.85;;;5.25;;
64197;SDS011;50512;53.666;9.700;2023-11-19T10:43:26;29.23;;;4.90;;
64197;SDS011;50512;53.666;9.700;2023-11-19T10:45:52;32.35;;;5.32;;
64197;SDS011;50512;53.666;9.700;2023-11-19T10:48:20;25.27;;;4.32;;
64197;SDS011;50512;53.666;9.700;2023-11-19T10:50:49;25.95;;;6.72;;
64197;SDS011;50512;53.666;9.700;2023-11-19T10:53:20;33.10;;;5.55;;
64197;SDS011;50512;53.666;9.700;2023-11-19T10:55:51;35.97;;;6.47;;
64197;SDS011;50512;53.666;9.700;2023-11-19T10:58:18;33.97;;;5.32;;
64197;SDS011;50512;53.666;9.700;2023-11-19T11:00:46;28.05;;;4.35;;
64197;SDS011;50512;53.666;9.700;2023-11-19T11:03:17;39.95;;;6.00;;
64197;SDS011;50512;53.666;9.700;2023-11-19T11:05:47;35.10;;;5.60;;
64197;SDS011;50512;53.666;9.700;2023-11-19T11:08:14;32.88;;;5.18;;
64197;SDS011;50512;53.666;9.700;2023-11-19T11:10:42;28.58;;;6.50;;
64197;SDS011;50512;53.666;9.700;2023-11-19T11:13:10;38.45;;;5.07;;
64197;SDS011;50512;53.666;9.700;2023-11-19T11:15:39;33.42;;;4.90;;
64197;SDS011;50512;53.666;9.700;2023-11-19T11:18:08;22.27;;;4.32;;
64197;SDS011;50512;53.666;9.700;2023-11-19T11:20:35;30.98;;;6.43;;
64197;SDS011;50512;53.666;9.700;2023-11-19T11:23:19;32.08;;;5.50;;
64197;SDS011;50512;53.666;9.700;2023-11-19T11:26:05;27.88;;;5.63;;
64197;SDS011;50512;53.666;9.700;2023-11-19T11:28:48;33.80;;;5.90;;
64197;SDS011;50512;53.666;9.700;2023-11-19T11:31:23;28.45;;;4.78;;
64197;SDS011;50512;53.666;9.700;2023-11-19T11:34:05;29.85;;;4.63;;
64197;SDS011;50512;53.666;9.700;2023-11-19T11:36:44;27.02;;;5.00;;
64197;SDS011;50512;53.666;9.700;2023-11-19T11:39:21;30.92;;;5.68;;
64197;SDS011;50512;53.666;9.700;2023-11-19T11:41:55;26.45;;;5.28;;
64197;SDS011;50512;53.666;9.700;2023-11-19T11:45:01;34.35;;;6.22;;
64197;SDS011;50512;53.666;9.700;2023-11-19T11:50:32;29.05;;;5.05;;
64197;SDS011;50512;53.666;9.700;2023-11-19T11:53:15;41.78;;;6.30;;
64197;SDS011;50512;53.666;9.700;2023-11-19T11:55:56;44.85;;;5.72;;
64197;SDS011;50512;53.666;9.700;2023-11-19T11:58:31;42.05;;;5.22;;
64197;SDS011;50512;53.666;9.700;2023-11-19T12:01:01;35.28;;;4.88;;
64197;SDS011;50512;53.666;9.700;2023-11-19T12:03:30;31.95;;;5.78;;
64197;SDS011;50512;53.666;9.700;2023-11-19T12:05:58;32.03;;;5.25;;
64197;SDS011;50512;53.666;9.700;2023-11-19T12:08:25;36.70;;;5.40;;
64197;SDS011;50512;53.666;9.700;2023-11-19T12:10:54;36.05;;;7.13;;
64197;SDS011;50512;53.666;9.700;2023-11-19T12:13:47;23.42;;;5.40;;
64197;SDS011;50512;53.666;9.700;2023-11-19T12:18:52;34.50;;;5.35;;
64197;SDS011;50512;53.666;9.700;2023-11-19T12:21:29;36.85;;;7.03;;
64197;SDS011;50512;53.666;9.700;2023-11-19T12:23:57;26.85;;;4.72;;
64197;SDS011;50512;53.666;9.700;2023-11-19T12:26:36;27.65;;;5.43;;
64197;SDS011;50512;53.666;9.700;2023-11-19T12:29:03;40.22;;;5.75;;
64197;SDS011;50512;53.666;9.700;2023-11-19T12:31:31;31.30;;;4.93;;
64197;SDS011;50512;53.666;9.700;2023-11-19T12:33:57;29.50;;;4.13;;
64197;SDS011;50512;53.666;9.700;2023-11-19T12:36:24;25.85;;;4.50;;
64197;SDS011;50512;53.666;9.700;2023-11-19T12:38:51;24.58;;;4.47;;
64197;SDS011;50512;53.666;9.700;2023-11-19T12:41:17;25.35;;;5.43;;
64197;SDS011;50512;53.666;9.700;2023-11-19T12:43:48;34.10;;;6.50;;
64197;SDS011;50512;53.666;9.700;2023-11-19T12:46:18;31.33;;;4.80;;
64197;SDS011;50512;53.666;9.700;2023-11-19T12:48:45;25.25;;;5.28;;
64197;SDS011;50512;53.666;9.700;2023-11-19T12:51:12;24.90;;;5.05;;
64197;SDS011;50512;53.666;9.700;2023-11-19T12:53:47;31.77;;;5.68;;
64197;SDS011;50512;53.666;9.700;2023-11-19T12:56:15;40.85;;;5.95;;
64197;SDS011;50512;53.666;9.700;2023-11-19T12:58:41;32.33;;;5.47;;
64197;SDS011;50512;53.666;9.700;2023-11-19T13:01:09;30.27;;;6.38;;
64197;SDS011;50512;53.666;9.700;2023-11-19T13:03:36;28.65;;;5.03;;
64197;SDS011;50512;53.666;9.700;2023-11-19T13:06:04;27.17;;;4.50;;
64197;SDS011;50512;53.666;9.700;2023-11-19T13:08:36;29.58;;;4.65;;
64197;SDS011;50512;53.666;9.700;2023-11-19T13:11:04;28.75;;;6.68;;
64197;SDS011;50512;53.666;9.700;2023-11-19T13:13:31;28.73;;;5.57;;
64197;SDS011;50512;53.666;9.700;2023-11-19T13:16:01;28.77;;;5.70;;
64197;SDS011;50512;53.666;9.700;2023-11-19T13:18:30;32.95;;;5.75;;
64197;SDS011;50512;53.666;9.700;2023-11-19T13:20:56;26.02;;;4.82;;
64197;SDS011;50512;53.666;9.700;2023-11-19T13:23:23;30.50;;;4.35;;
64197;SDS011;50512;53.666;9.700;2023-11-19T13:25:50;33.92;;;5.78;;
64197;SDS011;50512;53.666;9.700;2023-11-19T13:28:16;32.85;;;4.55;;
64197;SDS011;50512;53.666;9.700;2023-11-19T13:30:42;25.80;;;4.65;;
64197;SDS011;50512;53.666;9.700;2023-11-19T13:33:09;31.40;;;5.53;;
64197;SDS011;50512;53.666;9.700;2023-11-19T13:35:38;36.67;;;5.28;;
64197;SDS011;50512;53.666;9.700;2023-11-19T13:38:05;29.88;;;5.07;;
64197;SDS011;50512;53.666;9.700;2023-11-19T13:40:33;28.48;;;4.40;;
64197;SDS011;50512;53.666;9.700;2023-11-19T13:43:00;26.27;;;4.35;;
64197;SDS011;50512;53.666;9.700;2023-11-19T13:45:26;23.13;;;4.38;;
64197;SDS011;50512;53.666;9.700;2023-11-19T13:47:53;31.92;;;5.57;;
64197;SDS011;50512;53.666;9.700;2023-11-19T13:50:19;27.65;;;4.40;;
64197;SDS011;50512;53.666;9.700;2023-11-19T13:52:49;21.50;;;4.80;;
64197;SDS011;50512;53.666;9.700;2023-11-19T13:55:15;27.67;;;5.13;;
64197;SDS011;50512;53.666;9.700;2023-11-19T13:57:43;43.78;;;5.25;;
64197;SDS011;50512;53.666;9.700;2023-11-19T14:00:10;29.27;;;5.70;;
64197;SDS011;50512;53.666;9.700;2023-11-19T14:02:38;34.67;;;5.35;;
64197;SDS011;50512;53.666;9.700;2023-11-19T14:05:05;25.85;;;6.28;;
64197;SDS011;50512;53.666;9.700;2023-11-19T14:07:32;37.25;;;6.05;;
64197;SDS011;50512;53.666;9.700;2023-11-19T14:10:00;32.83;;;5.25;;
64197;SDS011;50512;53.666;9.700;2023-11-19T14:12:26;38.10;;;6.60;;
64197;SDS011;50512;53.666;9.700;2023-11-19T14:14:53;15.40;;;2.97;;
64197;SDS011;50512;53.666;9.700;2023-11-19T14:17:20;16.75;;;2.35;;
64197;SDS011;50512;53.666;9.700;2023-11-19T14:19:46;14.98;;;2.60;;
64197;SDS011;50512;53.666;9.700;2023-11-19T14:22:13;13.43;;;1.98;;
64197;SDS011;50512;53.666;9.700;2023-11-19T14:24:39;6.25;;;1.30;;
64197;SDS011;50512;53.666;9.700;2023-11-19T14:27:08;6.38;;;1.02;;
64197;SDS011;50512;53.666;9.700;2023-11-19T14:29:35;7.22;;;1.00;;
64197;SDS011;50512;53.666;9.700;2023-11-19T14:32:02;6.78;;;0.85;;
64197;SDS011;50512;53.666;9.700;2023-11-19T14:34:29;7.43;;;1.08;;
64197;SDS011;50512;53.666;9.700;2023-11-19T14:36:55;4.15;;;0.85;;
64197;SDS011;50512;53.666;9.700;2023-11-19T14:39:22;6.25;;;0.80;;
64197;SDS011;50512;53.666;9.700;2023-11-19T14:41:48;7.38;;;1.85;;
64197;SDS011;50512;53.666;9.700;2023-11-19T14:44:17;5.95;;;1.08;;
64197;SDS011;50512;53.666;9.700;2023-11-19T14:46:44;7.13;;;1.30;;